sensor_id;sensor_type;location;lat;lon;timestamp;P1;durP1;ratioP1;P2;durP2;ratioP2
68714;SDS011;55692;53.356;10.030;2023-04-24T00:01:14;10.88;;;5.70;;
68714;SDS011;55692;53.356;10.030;2023-04-24T00:03:42;8.73;;;6.13;;
68714;SDS011;55692;53.356;10.030;2023-04-24T00:06:08;7.93;;;5.97;;
68714;SDS011;55692;53.356;10.030;2023-04-24T00:08:34;8.77;;;6.20;;
68714;SDS011;55692;53.356;10.030;2023-04-24T00:11:01;9.07;;;5.95;;
68714;SDS011;55692;53.356;10.030;2023-04-24T00:13:27;8.80;;;6.05;;
68714;SDS011;55692;53.356;10.030;2023-04-24T00:15:54;9.65;;;6.43;;
68714;SDS011;55692;53.356;10.030;2023-04-24T00:18:20;9.38;;;6.03;;
68714;SDS011;55692;53.356;10.030;2023-04-24T00:20:46;7.13;;;6.03;;
68714;SDS011;55692;53.356;10.030;2023-04-24T00:23:12;9.30;;;5.93;;
68714;SDS011;55692;53.356;10.030;2023-04-24T00:25:38;9.48;;;6.10;;
68714;SDS011;55692;53.356;10.030;2023-04-24T00:28:05;9.02;;;6.10;;
68714;SDS011;55692;53.356;10.030;2023-04-24T00:30:31;10.23;;;5.97;;
68714;SDS011;55692;53.356;10.030;2023-04-24T00:32:57;9.32;;;6.32;;
68714;SDS011;55692;53.356;10.030;2023-04-24T00:35:23;12.15;;;6.90;;
68714;SDS011;55692;53.356;10.030;2023-04-24T00:37:49;10.23;;;6.88;;
68714;SDS011;55692;53.356;10.030;2023-04-24T00:40:15;9.95;;;6.15;;
68714;SDS011;55692;53.356;10.030;2023-04-24T00:42:41;10.07;;;6.20;;
68714;SDS011;55692;53.356;10.030;2023-04-24T00:45:08;10.10;;;5.60;;
68714;SDS011;55692;53.356;10.030;2023-04-24T00:47:35;8.50;;;6.13;;
68714;SDS011;55692;53.356;10.030;2023-04-24T00:50:02;7.93;;;5.30;;
68714;SDS011;55692;53.356;10.030;2023-04-24T00:52:28;7.45;;;5.60;;
68714;SDS011;55692;53.356;10.030;2023-04-24T00:54:56;7.63;;;5.05;;
68714;SDS011;55692;53.356;10.030;2023-04-24T00:57:22;10.98;;;5.55;;
68714;SDS011;55692;53.356;10.030;2023-04-24T00:59:48;7.95;;;5.57;;
68714;SDS011;55692;53.356;10.030;2023-04-24T01:02:14;6.07;;;4.75;;
68714;SDS011;55692;53.356;10.030;2023-04-24T01:04:40;8.38;;;4.70;;
68714;SDS011;55692;53.356;10.030;2023-04-24T01:07:07;10.30;;;5.00;;
68714;SDS011;55692;53.356;10.030;2023-04-24T01:09:35;6.60;;;4.65;;
68714;SDS011;55692;53.356;10.030;2023-04-24T01:12:02;6.32;;;4.57;;
68714;SDS011;55692;53.356;10.030;2023-04-24T01:14:28;5.78;;;4.50;;
68714;SDS011;55692;53.356;10.030;2023-04-24T01:16:54;5.57;;;3.97;;
68714;SDS011;55692;53.356;10.030;2023-04-24T01:19:20;5.10;;;3.47;;
68714;SDS011;55692;53.356;10.030;2023-04-24T01:21:46;10.68;;;4.80;;
68714;SDS011;55692;53.356;10.030;2023-04-24T01:24:13;4.60;;;3.88;;
68714;SDS011;55692;53.356;10.030;2023-04-24T01:26:39;6.55;;;3.85;;
68714;SDS011;55692;53.356;10.030;2023-04-24T01:29:05;5.32;;;3.47;;
68714;SDS011;55692;53.356;10.030;2023-04-24T01:31:31;4.03;;;3.28;;
68714;SDS011;55692;53.356;10.030;2023-04-24T01:33:58;4.43;;;3.35;;
68714;SDS011;55692;53.356;10.030;2023-04-24T01:36:24;6.22;;;3.50;;
68714;SDS011;55692;53.356;10.030;2023-04-24T01:38:52;6.05;;;3.60;;
68714;SDS011;55692;53.356;10.030;2023-04-24T01:41:18;4.78;;;3.70;;
68714;SDS011;55692;53.356;10.030;2023-04-24T01:43:45;6.28;;;3.58;;
68714;SDS011;55692;53.356;10.030;2023-04-24T01:46:11;7.03;;;3.53;;
68714;SDS011;55692;53.356;10.030;2023-04-24T01:48:37;3.80;;;2.83;;
68714;SDS011;55692;53.356;10.030;2023-04-24T01:51:03;6.57;;;3.08;;
68714;SDS011;55692;53.356;10.030;2023-04-24T01:53:29;4.35;;;2.40;;
68714;SDS011;55692;53.356;10.030;2023-04-24T01:55:55;3.47;;;2.50;;
68714;SDS011;55692;53.356;10.030;2023-04-24T01:58:21;3.78;;;2.67;;
68714;SDS011;55692;53.356;10.030;2023-04-24T02:00:47;4.65;;;2.28;;
68714;SDS011;55692;53.356;10.030;2023-04-24T02:03:13;3.75;;;2.03;;
68714;SDS011;55692;53.356;10.030;2023-04-24T02:05:39;3.17;;;2.30;;
68714;SDS011;55692;53.356;10.030;2023-04-24T02:08:05;6.72;;;2.40;;
68714;SDS011;55692;53.356;10.030;2023-04-24T02:10:31;3.42;;;2.25;;
68714;SDS011;55692;53.356;10.030;2023-04-24T02:12:57;3.45;;;2.20;;
68714;SDS011;55692;53.356;10.030;2023-04-24T02:15:24;2.38;;;1.85;;
68714;SDS011;55692;53.356;10.030;2023-04-24T02:17:50;2.53;;;2.05;;
68714;SDS011;55692;53.356;10.030;2023-04-24T02:20:16;2.20;;;2.00;;
68714;SDS011;55692;53.356;10.030;2023-04-24T02:22:42;2.85;;;1.95;;
68714;SDS011;55692;53.356;10.030;2023-04-24T02:25:08;2.97;;;1.80;;
68714;SDS011;55692;53.356;10.030;2023-04-24T02:27:34;2.97;;;1.83;;
68714;SDS011;55692;53.356;10.030;2023-04-24T02:30:00;1.85;;;1.65;;
68714;SDS011;55692;53.356;10.030;2023-04-24T02:32:27;2.60;;;1.60;;
68714;SDS011;55692;53.356;10.030;2023-04-24T02:34:53;2.55;;;1.45;;
68714;SDS011;55692;53.356;10.030;2023-04-24T02:37:19;2.47;;;1.80;;
68714;SDS011;55692;53.356;10.030;2023-04-24T02:39:45;2.25;;;1.50;;
68714;SDS011;55692;53.356;10.030;2023-04-24T02:42:11;2.15;;;1.60;;
68714;SDS011;55692;53.356;10.030;2023-04-24T02:44:37;2.15;;;1.40;;
68714;SDS011;55692;53.356;10.030;2023-04-24T02:47:03;2.28;;;1.58;;
68714;SDS011;55692;53.356;10.030;2023-04-24T02:49:29;1.83;;;1.50;;
68714;SDS011;55692;53.356;10.030;2023-04-24T02:51:55;4.00;;;2.00;;
68714;SDS011;55692;53.356;10.030;2023-04-24T02:54:21;2.97;;;1.83;;
68714;SDS011;55692;53.356;10.030;2023-04-24T02:56:47;3.60;;;1.80;;
68714;SDS011;55692;53.356;10.030;2023-04-24T02:59:13;2.47;;;1.52;;
68714;SDS011;55692;53.356;10.030;2023-04-24T03:01:39;1.80;;;1.58;;
68714;SDS011;55692;53.356;10.030;2023-04-24T03:04:05;5.03;;;1.50;;
68714;SDS011;55692;53.356;10.030;2023-04-24T03:06:31;2.08;;;1.45;;
68714;SDS011;55692;53.356;10.030;2023-04-24T03:08:57;2.40;;;1.35;;
68714;SDS011;55692;53.356;10.030;2023-04-24T03:11:23;1.83;;;1.48;;
68714;SDS011;55692;53.356;10.030;2023-04-24T03:13:50;2.58;;;1.60;;
68714;SDS011;55692;53.356;10.030;2023-04-24T03:16:16;1.50;;;1.40;;
68714;SDS011;55692;53.356;10.030;2023-04-24T03:18:42;2.22;;;1.73;;
68714;SDS011;55692;53.356;10.030;2023-04-24T03:21:08;4.30;;;1.60;;
68714;SDS011;55692;53.356;10.030;2023-04-24T03:23:34;2.38;;;1.55;;
68714;SDS011;55692;53.356;10.030;2023-04-24T03:26:00;2.90;;;1.75;;
68714;SDS011;55692;53.356;10.030;2023-04-24T03:28:27;3.55;;;1.92;;
68714;SDS011;55692;53.356;10.030;2023-04-24T03:30:53;2.00;;;1.50;;
68714;SDS011;55692;53.356;10.030;2023-04-24T03:33:19;1.50;;;1.40;;
68714;SDS011;55692;53.356;10.030;2023-04-24T03:35:45;1.75;;;1.52;;
68714;SDS011;55692;53.356;10.030;2023-04-24T03:38:11;2.30;;;1.33;;
68714;SDS011;55692;53.356;10.030;2023-04-24T03:40:37;5.38;;;1.48;;
68714;SDS011;55692;53.356;10.030;2023-04-24T03:43:03;1.60;;;1.35;;
68714;SDS011;55692;53.356;10.030;2023-04-24T03:45:29;1.75;;;1.60;;
68714;SDS011;55692;53.356;10.030;2023-04-24T03:47:55;2.60;;;1.60;;
68714;SDS011;55692;53.356;10.030;2023-04-24T03:50:21;1.83;;;1.45;;
68714;SDS011;55692;53.356;10.030;2023-04-24T03:52:47;1.80;;;1.40;;
68714;SDS011;55692;53.356;10.030;2023-04-24T03:55:13;3.97;;;1.30;;
68714;SDS011;55692;53.356;10.030;2023-04-24T03:57:40;1.30;;;1.20;;
68714;SDS011;55692;53.356;10.030;2023-04-24T04:00:06;1.77;;;1.30;;
68714;SDS011;55692;53.356;10.030;2023-04-24T04:02:33;1.63;;;1.40;;
68714;SDS011;55692;53.356;10.030;2023-04-24T04:04:59;1.75;;;1.40;;
68714;SDS011;55692;53.356;10.030;2023-04-24T04:07:25;2.50;;;1.52;;
68714;SDS011;55692;53.356;10.030;2023-04-24T04:09:51;1.45;;;1.20;;
68714;SDS011;55692;53.356;10.030;2023-04-24T04:12:17;1.92;;;1.20;;
68714;SDS011;55692;53.356;10.030;2023-04-24T04:14:43;6.60;;;1.13;;
68714;SDS011;55692;53.356;10.030;2023-04-24T04:17:09;1.52;;;0.95;;
68714;SDS011;55692;53.356;10.030;2023-04-24T04:19:35;3.28;;;1.10;;
68714;SDS011;55692;53.356;10.030;2023-04-24T04:22:02;1.65;;;1.00;;
68714;SDS011;55692;53.356;10.030;2023-04-24T04:24:28;1.13;;;1.00;;
68714;SDS011;55692;53.356;10.030;2023-04-24T04:26:54;1.17;;;1.00;;
68714;SDS011;55692;53.356;10.030;2023-04-24T04:29:21;1.30;;;1.20;;
68714;SDS011;55692;53.356;10.030;2023-04-24T04:31:47;1.08;;;0.95;;
68714;SDS011;55692;53.356;10.030;2023-04-24T04:34:13;1.95;;;1.20;;
68714;SDS011;55692;53.356;10.030;2023-04-24T04:36:40;2.83;;;1.20;;
68714;SDS011;55692;53.356;10.030;2023-04-24T04:39:06;2.22;;;1.08;;
68714;SDS011;55692;53.356;10.030;2023-04-24T04:41:32;1.55;;;1.10;;
68714;SDS011;55692;53.356;10.030;2023-04-24T04:44:00;1.13;;;1.02;;
68714;SDS011;55692;53.356;10.030;2023-04-24T04:46:26;4.18;;;1.20;;
68714;SDS011;55692;53.356;10.030;2023-04-24T04:48:52;3.80;;;0.77;;
68714;SDS011;55692;53.356;10.030;2023-04-24T04:51:19;1.52;;;1.10;;
68714;SDS011;55692;53.356;10.030;2023-04-24T04:53:45;1.25;;;0.93;;
68714;SDS011;55692;53.356;10.030;2023-04-24T04:56:11;1.33;;;0.98;;
68714;SDS011;55692;53.356;10.030;2023-04-24T04:58:37;1.00;;;0.90;;
68714;SDS011;55692;53.356;10.030;2023-04-24T05:01:03;3.00;;;1.00;;
68714;SDS011;55692;53.356;10.030;2023-04-24T05:03:29;1.25;;;0.95;;
68714;SDS011;55692;53.356;10.030;2023-04-24T05:05:55;0.73;;;0.55;;
68714;SDS011;55692;53.356;10.030;2023-04-24T05:08:23;0.90;;;0.75;;
68714;SDS011;55692;53.356;10.030;2023-04-24T05:10:49;1.27;;;0.80;;
68714;SDS011;55692;53.356;10.030;2023-04-24T05:13:15;1.42;;;0.85;;
68714;SDS011;55692;53.356;10.030;2023-04-24T05:15:41;1.23;;;0.50;;
68714;SDS011;55692;53.356;10.030;2023-04-24T05:18:07;0.70;;;0.60;;
68714;SDS011;55692;53.356;10.030;2023-04-24T05:20:33;0.82;;;0.52;;
68714;SDS011;55692;53.356;10.030;2023-04-24T05:22:59;0.90;;;0.80;;
68714;SDS011;55692;53.356;10.030;2023-04-24T05:25:25;0.80;;;0.80;;
68714;SDS011;55692;53.356;10.030;2023-04-24T05:27:51;0.57;;;0.57;;
68714;SDS011;55692;53.356;10.030;2023-04-24T05:30:18;0.52;;;0.50;;
68714;SDS011;55692;53.356;10.030;2023-04-24T05:32:44;0.93;;;0.45;;
68714;SDS011;55692;53.356;10.030;2023-04-24T05:35:11;1.65;;;0.80;;
68714;SDS011;55692;53.356;10.030;2023-04-24T05:37:37;2.25;;;0.75;;
68714;SDS011;55692;53.356;10.030;2023-04-24T05:40:03;1.08;;;0.50;;
68714;SDS011;55692;53.356;10.030;2023-04-24T05:42:30;0.98;;;0.73;;
68714;SDS011;55692;53.356;10.030;2023-04-24T05:44:56;1.13;;;0.90;;
68714;SDS011;55692;53.356;10.030;2023-04-24T05:47:22;1.65;;;0.70;;
68714;SDS011;55692;53.356;10.030;2023-04-24T05:49:48;6.30;;;1.08;;
68714;SDS011;55692;53.356;10.030;2023-04-24T05:52:14;1.02;;;0.80;;
68714;SDS011;55692;53.356;10.030;2023-04-24T05:54:40;0.82;;;0.70;;
68714;SDS011;55692;53.356;10.030;2023-04-24T05:57:06;1.45;;;0.98;;
68714;SDS011;55692;53.356;10.030;2023-04-24T05:59:33;1.17;;;0.90;;
68714;SDS011;55692;53.356;10.030;2023-04-24T06:01:59;1.15;;;0.90;;
68714;SDS011;55692;53.356;10.030;2023-04-24T06:04:25;1.20;;;1.00;;
68714;SDS011;55692;53.356;10.030;2023-04-24T06:06:51;2.08;;;0.80;;
68714;SDS011;55692;53.356;10.030;2023-04-24T06:09:21;4.65;;;0.93;;
68714;SDS011;55692;53.356;10.030;2023-04-24T06:11:47;1.15;;;1.05;;
68714;SDS011;55692;53.356;10.030;2023-04-24T06:14:13;1.58;;;1.00;;
68714;SDS011;55692;53.356;10.030;2023-04-24T06:16:42;2.85;;;1.13;;
68714;SDS011;55692;53.356;10.030;2023-04-24T06:19:08;1.65;;;0.90;;
68714;SDS011;55692;53.356;10.030;2023-04-24T06:21:34;1.35;;;1.05;;
68714;SDS011;55692;53.356;10.030;2023-04-24T06:24:00;2.00;;;1.02;;
68714;SDS011;55692;53.356;10.030;2023-04-24T06:26:26;1.70;;;1.20;;
68714;SDS011;55692;53.356;10.030;2023-04-24T06:28:53;2.22;;;1.20;;
68714;SDS011;55692;53.356;10.030;2023-04-24T06:31:19;3.05;;;1.40;;
68714;SDS011;55692;53.356;10.030;2023-04-24T06:33:45;2.08;;;1.40;;
68714;SDS011;55692;53.356;10.030;2023-04-24T06:36:11;2.35;;;1.00;;
68714;SDS011;55692;53.356;10.030;2023-04-24T06:38:38;1.52;;;1.08;;
68714;SDS011;55692;53.356;10.030;2023-04-24T06:41:04;2.05;;;1.20;;
68714;SDS011;55692;53.356;10.030;2023-04-24T06:43:30;1.33;;;1.17;;
68714;SDS011;55692;53.356;10.030;2023-04-24T06:45:57;1.98;;;1.25;;
68714;SDS011;55692;53.356;10.030;2023-04-24T06:48:23;2.53;;;1.50;;
68714;SDS011;55692;53.356;10.030;2023-04-24T06:50:50;3.25;;;1.35;;
68714;SDS011;55692;53.356;10.030;2023-04-24T06:53:16;1.45;;;1.05;;
68714;SDS011;55692;53.356;10.030;2023-04-24T06:55:42;1.55;;;0.98;;
68714;SDS011;55692;53.356;10.030;2023-04-24T06:58:10;1.92;;;1.73;;
68714;SDS011;55692;53.356;10.030;2023-04-24T07:00:36;3.05;;;1.27;;
68714;SDS011;55692;53.356;10.030;2023-04-24T07:03:02;2.53;;;1.60;;
68714;SDS011;55692;53.356;10.030;2023-04-24T07:05:30;2.97;;;1.48;;
68714;SDS011;55692;53.356;10.030;2023-04-24T07:07:56;2.72;;;1.50;;
68714;SDS011;55692;53.356;10.030;2023-04-24T07:10:25;2.22;;;1.63;;
68714;SDS011;55692;53.356;10.030;2023-04-24T07:12:53;1.95;;;1.50;;
68714;SDS011;55692;53.356;10.030;2023-04-24T07:15:19;2.63;;;1.92;;
68714;SDS011;55692;53.356;10.030;2023-04-24T07:17:45;2.53;;;1.70;;
68714;SDS011;55692;53.356;10.030;2023-04-24T07:20:11;2.05;;;1.75;;
68714;SDS011;55692;53.356;10.030;2023-04-24T07:22:39;2.78;;;1.80;;
68714;SDS011;55692;53.356;10.030;2023-04-24T07:25:05;2.08;;;1.85;;
68714;SDS011;55692;53.356;10.030;2023-04-24T07:27:32;7.32;;;2.42;;
68714;SDS011;55692;53.356;10.030;2023-04-24T07:29:58;2.15;;;1.90;;
68714;SDS011;55692;53.356;10.030;2023-04-24T07:32:24;2.42;;;1.80;;
68714;SDS011;55692;53.356;10.030;2023-04-24T07:34:50;2.25;;;1.80;;
68714;SDS011;55692;53.356;10.030;2023-04-24T07:37:16;2.85;;;2.10;;
68714;SDS011;55692;53.356;10.030;2023-04-24T07:39:42;2.53;;;1.77;;
68714;SDS011;55692;53.356;10.030;2023-04-24T07:42:08;2.58;;;2.00;;
68714;SDS011;55692;53.356;10.030;2023-04-24T07:44:34;3.15;;;2.17;;
68714;SDS011;55692;53.356;10.030;2023-04-24T07:47:01;3.28;;;2.40;;
68714;SDS011;55692;53.356;10.030;2023-04-24T07:49:27;3.58;;;2.35;;
68714;SDS011;55692;53.356;10.030;2023-04-24T07:51:53;3.80;;;2.38;;
68714;SDS011;55692;53.356;10.030;2023-04-24T07:54:19;3.75;;;2.63;;
68714;SDS011;55692;53.356;10.030;2023-04-24T07:56:45;3.53;;;2.53;;
68714;SDS011;55692;53.356;10.030;2023-04-24T07:59:11;4.57;;;3.15;;
68714;SDS011;55692;53.356;10.030;2023-04-24T08:01:37;4.38;;;3.22;;
68714;SDS011;55692;53.356;10.030;2023-04-24T08:04:03;4.45;;;3.05;;
68714;SDS011;55692;53.356;10.030;2023-04-24T08:06:29;5.28;;;3.60;;
68714;SDS011;55692;53.356;10.030;2023-04-24T08:08:56;4.93;;;3.28;;
68714;SDS011;55692;53.356;10.030;2023-04-24T08:11:23;4.00;;;3.15;;
68714;SDS011;55692;53.356;10.030;2023-04-24T08:13:49;5.22;;;3.40;;
68714;SDS011;55692;53.356;10.030;2023-04-24T08:16:15;4.45;;;3.47;;
68714;SDS011;55692;53.356;10.030;2023-04-24T08:18:41;4.40;;;3.40;;
68714;SDS011;55692;53.356;10.030;2023-04-24T08:21:07;4.57;;;3.50;;
68714;SDS011;55692;53.356;10.030;2023-04-24T08:23:33;4.07;;;3.00;;
68714;SDS011;55692;53.356;10.030;2023-04-24T08:25:59;7.30;;;3.60;;
68714;SDS011;55692;53.356;10.030;2023-04-24T08:28:25;4.20;;;3.30;;
68714;SDS011;55692;53.356;10.030;2023-04-24T08:30:51;6.55;;;3.60;;
68714;SDS011;55692;53.356;10.030;2023-04-24T08:33:20;7.10;;;3.40;;
68714;SDS011;55692;53.356;10.030;2023-04-24T08:35:46;5.75;;;3.95;;
68714;SDS011;55692;53.356;10.030;2023-04-24T08:38:12;6.22;;;4.60;;
68714;SDS011;55692;53.356;10.030;2023-04-24T08:40:38;6.00;;;4.10;;
68714;SDS011;55692;53.356;10.030;2023-04-24T08:43:04;5.25;;;4.20;;
68714;SDS011;55692;53.356;10.030;2023-04-24T08:45:30;5.88;;;4.68;;
68714;SDS011;55692;53.356;10.030;2023-04-24T08:47:58;5.30;;;4.43;;
68714;SDS011;55692;53.356;10.030;2023-04-24T08:50:24;6.63;;;4.60;;
68714;SDS011;55692;53.356;10.030;2023-04-24T08:52:51;7.53;;;4.35;;
68714;SDS011;55692;53.356;10.030;2023-04-24T08:55:21;5.70;;;4.15;;
68714;SDS011;55692;53.356;10.030;2023-04-24T08:57:50;4.88;;;4.20;;
68714;SDS011;55692;53.356;10.030;2023-04-24T09:00:17;4.53;;;4.00;;
68714;SDS011;55692;53.356;10.030;2023-04-24T09:02:43;5.05;;;4.03;;
68714;SDS011;55692;53.356;10.030;2023-04-24T09:05:11;5.15;;;4.20;;
68714;SDS011;55692;53.356;10.030;2023-04-24T09:07:38;6.05;;;4.32;;
68714;SDS011;55692;53.356;10.030;2023-04-24T09:10:05;4.45;;;3.92;;
68714;SDS011;55692;53.356;10.030;2023-04-24T09:12:32;6.60;;;4.40;;
68714;SDS011;55692;53.356;10.030;2023-04-24T09:15:00;6.25;;;4.50;;
68714;SDS011;55692;53.356;10.030;2023-04-24T09:17:26;6.80;;;4.22;;
68714;SDS011;55692;53.356;10.030;2023-04-24T09:19:53;5.72;;;4.10;;
68714;SDS011;55692;53.356;10.030;2023-04-24T09:22:19;5.80;;;4.10;;
68714;SDS011;55692;53.356;10.030;2023-04-24T09:24:45;5.93;;;4.20;;
68714;SDS011;55692;53.356;10.030;2023-04-24T09:27:11;6.28;;;4.05;;
68714;SDS011;55692;53.356;10.030;2023-04-24T09:29:38;7.80;;;5.57;;
68714;SDS011;55692;53.356;10.030;2023-04-24T09:32:17;6.30;;;4.82;;
68714;SDS011;55692;53.356;10.030;2023-04-24T09:34:44;7.22;;;4.70;;
68714;SDS011;55692;53.356;10.030;2023-04-24T09:37:18;6.72;;;4.72;;
68714;SDS011;55692;53.356;10.030;2023-04-24T09:42:37;5.75;;;4.57;;
68714;SDS011;55692;53.356;10.030;2023-04-24T09:45:04;5.45;;;4.40;;
68714;SDS011;55692;53.356;10.030;2023-04-24T09:47:36;8.48;;;4.97;;
68714;SDS011;55692;53.356;10.030;2023-04-24T09:50:35;6.35;;;5.00;;
68714;SDS011;55692;53.356;10.030;2023-04-24T09:52:57;7.15;;;5.10;;
68714;SDS011;55692;53.356;10.030;2023-04-24T09:55:24;10.85;;;5.80;;
68714;SDS011;55692;53.356;10.030;2023-04-24T09:57:54;9.20;;;6.07;;
68714;SDS011;55692;53.356;10.030;2023-04-24T10:00:27;6.38;;;5.07;;
68714;SDS011;55692;53.356;10.030;2023-04-24T10:05:22;8.48;;;5.75;;
68714;SDS011;55692;53.356;10.030;2023-04-24T10:07:49;9.20;;;5.53;;
68714;SDS011;55692;53.356;10.030;2023-04-24T10:10:15;8.98;;;6.20;;
68714;SDS011;55692;53.356;10.030;2023-04-24T10:12:41;12.95;;;7.00;;
68714;SDS011;55692;53.356;10.030;2023-04-24T10:15:07;9.50;;;6.05;;
68714;SDS011;55692;53.356;10.030;2023-04-24T10:17:37;12.50;;;7.40;;
68714;SDS011;55692;53.356;10.030;2023-04-24T10:20:04;9.35;;;6.88;;
68714;SDS011;55692;53.356;10.030;2023-04-24T10:22:32;9.43;;;7.18;;
68714;SDS011;55692;53.356;10.030;2023-04-24T10:24:59;8.63;;;6.45;;
68714;SDS011;55692;53.356;10.030;2023-04-24T10:27:26;9.70;;;7.00;;
68714;SDS011;55692;53.356;10.030;2023-04-24T10:29:52;10.77;;;6.80;;
68714;SDS011;55692;53.356;10.030;2023-04-24T10:32:19;10.88;;;7.25;;
68714;SDS011;55692;53.356;10.030;2023-04-24T10:34:45;10.00;;;7.38;;
68714;SDS011;55692;53.356;10.030;2023-04-24T10:37:11;10.02;;;6.97;;
68714;SDS011;55692;53.356;10.030;2023-04-24T10:39:38;9.43;;;6.53;;
68714;SDS011;55692;53.356;10.030;2023-04-24T10:42:15;8.60;;;6.78;;
68714;SDS011;55692;53.356;10.030;2023-04-24T10:44:41;12.63;;;7.20;;
68714;SDS011;55692;53.356;10.030;2023-04-24T10:47:12;11.05;;;6.97;;
68714;SDS011;55692;53.356;10.030;2023-04-24T10:49:39;8.63;;;6.32;;
68714;SDS011;55692;53.356;10.030;2023-04-24T10:52:05;12.25;;;6.45;;
68714;SDS011;55692;53.356;10.030;2023-04-24T10:54:35;9.93;;;6.85;;
68714;SDS011;55692;53.356;10.030;2023-04-24T10:59:50;12.15;;;6.45;;
68714;SDS011;55692;53.356;10.030;2023-04-24T11:02:17;8.95;;;6.05;;
68714;SDS011;55692;53.356;10.030;2023-04-24T11:04:44;14.05;;;6.95;;
68714;SDS011;55692;53.356;10.030;2023-04-24T11:07:11;10.02;;;6.97;;
68714;SDS011;55692;53.356;10.030;2023-04-24T11:09:37;8.23;;;5.50;;
68714;SDS011;55692;53.356;10.030;2023-04-24T11:12:07;8.25;;;5.90;;
68714;SDS011;55692;53.356;10.030;2023-04-24T11:15:19;11.20;;;5.82;;
68714;SDS011;55692;53.356;10.030;2023-04-24T11:17:36;9.23;;;5.05;;
68714;SDS011;55692;53.356;10.030;2023-04-24T11:20:10;7.15;;;5.13;;
68714;SDS011;55692;53.356;10.030;2023-04-24T11:22:37;7.65;;;5.00;;
68714;SDS011;55692;53.356;10.030;2023-04-24T11:25:04;5.03;;;4.25;;
68714;SDS011;55692;53.356;10.030;2023-04-24T11:27:34;6.90;;;5.00;;
68714;SDS011;55692;53.356;10.030;2023-04-24T11:30:04;7.80;;;5.28;;
68714;SDS011;55692;53.356;10.030;2023-04-24T11:37:39;6.97;;;4.63;;
68714;SDS011;55692;53.356;10.030;2023-04-24T11:40:06;8.88;;;4.43;;
68714;SDS011;55692;53.356;10.030;2023-04-24T11:42:34;9.63;;;4.88;;
68714;SDS011;55692;53.356;10.030;2023-04-24T11:45:00;4.78;;;3.78;;
68714;SDS011;55692;53.356;10.030;2023-04-24T11:47:27;6.47;;;4.35;;
68714;SDS011;55692;53.356;10.030;2023-04-24T11:49:53;5.47;;;4.07;;
68714;SDS011;55692;53.356;10.030;2023-04-24T11:52:19;5.13;;;3.85;;
68714;SDS011;55692;53.356;10.030;2023-04-24T11:54:49;4.30;;;3.50;;
68714;SDS011;55692;53.356;10.030;2023-04-24T11:57:15;5.90;;;3.85;;
68714;SDS011;55692;53.356;10.030;2023-04-24T11:59:41;5.30;;;3.75;;
68714;SDS011;55692;53.356;10.030;2023-04-24T12:02:07;6.07;;;3.53;;
68714;SDS011;55692;53.356;10.030;2023-04-24T12:04:40;4.10;;;3.58;;
68714;SDS011;55692;53.356;10.030;2023-04-24T12:07:06;6.20;;;4.67;;
68714;SDS011;55692;53.356;10.030;2023-04-24T12:12:18;6.10;;;4.18;;
68714;SDS011;55692;53.356;10.030;2023-04-24T12:14:48;10.30;;;4.45;;
68714;SDS011;55692;53.356;10.030;2023-04-24T12:17:15;5.28;;;3.80;;
68714;SDS011;55692;53.356;10.030;2023-04-24T12:19:45;5.45;;;4.15;;
68714;SDS011;55692;53.356;10.030;2023-04-24T12:22:11;4.80;;;3.90;;
68714;SDS011;55692;53.356;10.030;2023-04-24T12:24:55;4.60;;;3.90;;
68714;SDS011;55692;53.356;10.030;2023-04-24T12:27:21;8.10;;;3.95;;
68714;SDS011;55692;53.356;10.030;2023-04-24T12:29:56;6.22;;;3.42;;
68714;SDS011;55692;53.356;10.030;2023-04-24T12:32:22;4.50;;;2.97;;
68714;SDS011;55692;53.356;10.030;2023-04-24T12:34:54;4.80;;;3.03;;
68714;SDS011;55692;53.356;10.030;2023-04-24T12:37:24;4.47;;;3.00;;
68714;SDS011;55692;53.356;10.030;2023-04-24T12:42:29;4.80;;;2.97;;
68714;SDS011;55692;53.356;10.030;2023-04-24T12:44:56;3.95;;;2.63;;
68714;SDS011;55692;53.356;10.030;2023-04-24T12:47:23;3.30;;;2.78;;
68714;SDS011;55692;53.356;10.030;2023-04-24T12:49:50;4.50;;;2.80;;
68714;SDS011;55692;53.356;10.030;2023-04-24T12:52:17;3.65;;;2.53;;
68714;SDS011;55692;53.356;10.030;2023-04-24T12:54:44;3.25;;;2.95;;
68714;SDS011;55692;53.356;10.030;2023-04-24T12:57:11;4.78;;;3.25;;
68714;SDS011;55692;53.356;10.030;2023-04-24T12:59:37;4.63;;;3.35;;
68714;SDS011;55692;53.356;10.030;2023-04-24T13:02:04;3.28;;;2.88;;
68714;SDS011;55692;53.356;10.030;2023-04-24T13:04:30;3.90;;;3.20;;
68714;SDS011;55692;53.356;10.030;2023-04-24T13:06:57;4.72;;;3.22;;
68714;SDS011;55692;53.356;10.030;2023-04-24T13:09:23;4.15;;;2.50;;
68714;SDS011;55692;53.356;10.030;2023-04-24T13:11:49;2.85;;;2.50;;
68714;SDS011;55692;53.356;10.030;2023-04-24T13:14:15;2.92;;;2.63;;
68714;SDS011;55692;53.356;10.030;2023-04-24T13:16:42;3.80;;;2.72;;
68714;SDS011;55692;53.356;10.030;2023-04-24T13:19:07;5.57;;;2.50;;
68714;SDS011;55692;53.356;10.030;2023-04-24T13:21:33;7.00;;;2.75;;
68714;SDS011;55692;53.356;10.030;2023-04-24T13:23:59;3.45;;;2.35;;
68714;SDS011;55692;53.356;10.030;2023-04-24T13:26:26;2.83;;;2.50;;
68714;SDS011;55692;53.356;10.030;2023-04-24T13:28:52;4.57;;;2.58;;
68714;SDS011;55692;53.356;10.030;2023-04-24T13:31:18;2.83;;;2.25;;
68714;SDS011;55692;53.356;10.030;2023-04-24T13:33:44;4.82;;;2.40;;
68714;SDS011;55692;53.356;10.030;2023-04-24T13:36:10;2.70;;;2.05;;
68714;SDS011;55692;53.356;10.030;2023-04-24T13:38:36;4.85;;;2.20;;
68714;SDS011;55692;53.356;10.030;2023-04-24T13:41:02;2.35;;;2.03;;
68714;SDS011;55692;53.356;10.030;2023-04-24T13:43:28;2.70;;;2.00;;
68714;SDS011;55692;53.356;10.030;2023-04-24T13:45:54;3.50;;;2.42;;
68714;SDS011;55692;53.356;10.030;2023-04-24T13:48:20;3.00;;;2.17;;
68714;SDS011;55692;53.356;10.030;2023-04-24T13:50:46;3.15;;;2.42;;
68714;SDS011;55692;53.356;10.030;2023-04-24T13:53:14;3.42;;;2.58;;
68714;SDS011;55692;53.356;10.030;2023-04-24T13:55:40;2.50;;;2.30;;
68714;SDS011;55692;53.356;10.030;2023-04-24T13:58:06;3.08;;;2.35;;
68714;SDS011;55692;53.356;10.030;2023-04-24T14:00:32;3.50;;;2.40;;
68714;SDS011;55692;53.356;10.030;2023-04-24T14:02:58;4.25;;;2.78;;
68714;SDS011;55692;53.356;10.030;2023-04-24T14:05:25;3.25;;;2.30;;
68714;SDS011;55692;53.356;10.030;2023-04-24T14:07:51;4.28;;;2.60;;
68714;SDS011;55692;53.356;10.030;2023-04-24T14:10:17;2.75;;;2.10;;
68714;SDS011;55692;53.356;10.030;2023-04-24T14:12:43;2.63;;;2.38;;
68714;SDS011;55692;53.356;10.030;2023-04-24T14:15:10;3.45;;;2.67;;
68714;SDS011;55692;53.356;10.030;2023-04-24T14:17:38;2.53;;;2.17;;
68714;SDS011;55692;53.356;10.030;2023-04-24T14:20:04;3.75;;;2.55;;
68714;SDS011;55692;53.356;10.030;2023-04-24T14:22:30;3.17;;;2.10;;
68714;SDS011;55692;53.356;10.030;2023-04-24T14:24:56;2.85;;;2.40;;
68714;SDS011;55692;53.356;10.030;2023-04-24T14:27:22;2.70;;;2.03;;
68714;SDS011;55692;53.356;10.030;2023-04-24T14:29:48;3.95;;;2.10;;
68714;SDS011;55692;53.356;10.030;2023-04-24T14:32:14;2.22;;;1.90;;
68714;SDS011;55692;53.356;10.030;2023-04-24T14:34:40;4.07;;;2.10;;
68714;SDS011;55692;53.356;10.030;2023-04-24T14:37:07;2.72;;;1.70;;
68714;SDS011;55692;53.356;10.030;2023-04-24T14:39:33;1.55;;;1.40;;
68714;SDS011;55692;53.356;10.030;2023-04-24T14:41:59;2.72;;;1.50;;
68714;SDS011;55692;53.356;10.030;2023-04-24T14:44:28;1.60;;;1.50;;
68714;SDS011;55692;53.356;10.030;2023-04-24T14:46:54;2.35;;;1.58;;
68714;SDS011;55692;53.356;10.030;2023-04-24T14:49:21;1.80;;;1.25;;